createdAt,value
2022-09-30T00:01:52.722Z,96469.69
2022-09-30T00:04:23.550Z,96474.63
2022-09-30T00:06:51.994Z,96479.03
2022-09-30T00:09:20.130Z,96469.63
2022-09-30T00:11:47.603Z,96475.38
2022-09-30T00:14:20.899Z,96467.53
2022-09-30T00:16:49.227Z,96467.94
2022-09-30T00:19:16.818Z,96472.38
2022-09-30T00:21:44.324Z,96470.47
2022-09-30T00:24:11.987Z,96475.72
2022-09-30T00:26:39.530Z,96483.38
2022-09-30T00:29:06.913Z,96485.88
2022-09-30T00:31:35.667Z,96486.41
2022-09-30T00:34:07.845Z,96481.84
2022-09-30T00:36:45.852Z,96482.69
2022-09-30T00:39:18.492Z,96474.25
2022-09-30T00:41:51.785Z,96479.78
2022-09-30T00:44:53.979Z,96480.56
2022-09-30T00:48:04.975Z,96472.16
2022-09-30T00:50:47.210Z,96480.50
2022-09-30T00:53:44.449Z,96488.13
2022-09-30T00:56:23.257Z,96485.75
2022-09-30T00:59:04.779Z,96485.69
2022-09-30T01:01:32.532Z,96489.94
2022-09-30T01:04:21.895Z,96487.50
2022-09-30T01:06:50.182Z,96488.44
2022-09-30T01:09:18.684Z,96486.56
2022-09-30T01:11:47.446Z,96491.50
2022-09-30T01:14:20.304Z,96487.75
2022-09-30T01:17:11.171Z,96489.09
2022-09-30T01:19:52.170Z,96488.25
2022-09-30T01:22:44.668Z,96494.88
2022-09-30T01:25:43.164Z,96491.22
2022-09-30T01:28:36.254Z,96489.19
2022-09-30T01:31:43.276Z,96492.38
2022-09-30T01:34:37.533Z,96494.22
2022-09-30T01:37:29.434Z,96496.28
2022-09-30T01:40:06.000Z,96498.25
2022-09-30T01:42:45.672Z,96503.94
2022-09-30T01:45:16.957Z,96511.16
2022-09-30T01:48:02.370Z,96507.88
2022-09-30T01:50:49.040Z,96500.59
2022-09-30T01:53:39.823Z,96504.19
2022-09-30T01:56:39.544Z,96504.72
2022-09-30T01:59:30.945Z,96502.22
2022-09-30T02:02:12.206Z,96506.22
2022-09-30T02:04:50.629Z,96504.47
2022-09-30T02:07:36.768Z,96506.81
2022-09-30T02:10:25.190Z,96503.59
2022-09-30T02:13:17.049Z,96512.59
2022-09-30T02:15:54.534Z,96514.72
2022-09-30T02:18:45.234Z,96522.34
2022-09-30T02:21:19.895Z,96516.78
2022-09-30T02:23:50.785Z,96518.06
2022-09-30T02:26:30.178Z,96520.28
2022-09-30T02:29:24.971Z,96522.38
2022-09-30T02:31:59.517Z,96522.94
2022-09-30T02:34:37.881Z,96519.63
2022-09-30T02:37:16.625Z,96520.56
2022-09-30T02:40:02.861Z,96523.84
2022-09-30T02:42:31.828Z,96520.91
2022-09-30T02:45:10.379Z,96520.84
2022-09-30T02:47:48.700Z,96521.41
2022-09-30T02:50:39.087Z,96530.66
2022-09-30T02:53:40.462Z,96524.66
2022-09-30T02:56:29.448Z,96531.34
2022-09-30T02:58:57.716Z,96533.66
2022-09-30T03:01:25.558Z,96537.56
2022-09-30T03:04:00.747Z,96526.88
2022-09-30T03:06:29.028Z,96534.78
2022-09-30T03:08:56.311Z,96537.56
2022-09-30T03:11:28.132Z,96533.66
2022-09-30T03:14:10.186Z,96538.25
2022-09-30T03:17:50.979Z,96540.81
2022-09-30T03:20:46.900Z,96549.81
2022-09-30T03:23:27.422Z,96543.78
2022-09-30T03:26:17.904Z,96542.00
2022-09-30T03:29:31.563Z,96540.56
2022-09-30T03:32:13.688Z,96543.47
2022-09-30T03:35:04.031Z,96544.19
2022-09-30T03:38:00.403Z,96551.84
2022-09-30T03:40:58.301Z,96549.69
2022-09-30T03:43:40.161Z,96549.69
2022-09-30T03:46:30.119Z,96548.41
2022-09-30T03:49:03.252Z,96556.84
2022-09-30T03:51:31.256Z,96553.34
2022-09-30T03:53:59.521Z,96555.44
2022-09-30T03:56:31.883Z,96547.28
2022-09-30T03:59:00.371Z,96539.88
2022-09-30T04:01:27.574Z,96544.34
2022-09-30T04:03:54.926Z,96547.00
2022-09-30T04:06:24.949Z,96542.88
2022-09-30T04:08:54.017Z,96543.59
2022-09-30T04:11:21.512Z,96547.38
2022-09-30T04:13:48.770Z,96558.38
2022-09-30T04:16:16.058Z,96552.59
2022-09-30T04:18:43.489Z,96552.03
2022-09-30T04:21:14.559Z,96559.00
2022-09-30T04:23:43.011Z,96560.66
2022-09-30T04:26:15.907Z,96560.06
2022-09-30T04:28:43.937Z,96557.28
2022-09-30T04:31:12.871Z,96565.66
2022-09-30T04:33:40.848Z,96568.69
2022-09-30T04:36:08.331Z,96566.88
2022-09-30T04:38:35.705Z,96565.91
2022-09-30T04:41:06.174Z,96562.72
2022-09-30T04:43:34.599Z,96557.19
2022-09-30T04:46:02.323Z,96559.22
2022-09-30T04:48:32.426Z,96561.03
2022-09-30T04:51:00.749Z,96556.44
2022-09-30T04:53:28.334Z,96566.34
2022-09-30T04:56:01.019Z,96565.00
2022-09-30T04:58:33.341Z,96559.72
2022-09-30T05:01:03.617Z,96567.81
2022-09-30T05:03:34.105Z,96570.19
2022-09-30T05:06:03.050Z,96569.66
2022-09-30T05:08:30.462Z,96568.38
2022-09-30T05:11:00.226Z,96573.59
2022-09-30T05:13:36.055Z,96575.47
2022-09-30T05:16:04.085Z,96579.81
2022-09-30T05:18:33.262Z,96582.44
2022-09-30T05:21:01.774Z,96589.28
2022-09-30T05:23:31.696Z,96598.28
2022-09-30T05:25:59.935Z,96601.22
2022-09-30T05:28:27.540Z,96593.94
2022-09-30T05:31:03.642Z,96595.16
2022-09-30T05:33:31.436Z,96595.16
2022-09-30T05:36:12.071Z,96609.38
2022-09-30T05:38:39.445Z,96613.41
2022-09-30T05:41:12.667Z,96607.44
2022-09-30T05:43:42.430Z,96613.50
2022-09-30T05:46:09.699Z,96616.72
2022-09-30T05:48:37.104Z,96615.59
2022-09-30T05:51:04.828Z,96624.28
2022-09-30T05:53:32.692Z,96624.63
2022-09-30T05:56:00.661Z,96626.94
2022-09-30T05:58:27.872Z,96629.78
2022-09-30T06:00:55.185Z,96627.59
2022-09-30T06:03:22.597Z,96635.56
2022-09-30T06:05:57.175Z,96634.63
2022-09-30T06:08:24.752Z,96635.06
2022-09-30T06:10:51.946Z,96632.75
2022-09-30T06:13:20.783Z,96638.69
2022-09-30T06:15:59.670Z,96638.97
2022-09-30T06:18:28.955Z,96639.78
2022-09-30T06:21:02.096Z,96643.06
2022-09-30T06:23:31.692Z,96642.94
2022-09-30T06:26:00.310Z,96645.88
2022-09-30T06:28:28.229Z,96650.81
2022-09-30T06:30:55.587Z,96652.19
2022-09-30T06:33:23.100Z,96640.72
2022-09-30T06:35:51.373Z,96638.38
2022-09-30T06:38:18.814Z,96642.66
2022-09-30T06:40:50.465Z,96643.59
2022-09-30T06:43:21.096Z,96643.22
2022-09-30T06:45:54.435Z,96649.44
2022-09-30T06:48:34.147Z,96655.94
2022-09-30T06:51:04.622Z,96655.88
2022-09-30T06:53:32.001Z,96657.19
2022-09-30T06:55:59.273Z,96651.41
2022-09-30T06:58:26.615Z,96658.19
2022-09-30T07:01:03.772Z,96659.34
2022-09-30T07:03:34.947Z,96662.91
2022-09-30T07:06:06.672Z,96672.53
2022-09-30T07:08:37.354Z,96674.81
2022-09-30T07:11:14.750Z,96666.31
2022-09-30T07:13:46.900Z,96663.06
2022-09-30T07:16:16.224Z,96667.44
2022-09-30T07:18:45.107Z,96666.19
2022-09-30T07:21:16.341Z,96668.25
2022-09-30T07:23:48.473Z,96666.44
2022-09-30T07:26:19.801Z,96672.84
2022-09-30T07:28:48.173Z,96675.72
2022-09-30T07:31:35.069Z,96674.63
2022-09-30T07:34:08.065Z,96678.13
2022-09-30T07:36:40.273Z,96681.69
2022-09-30T07:39:10.156Z,96686.78
2022-09-30T07:41:40.212Z,96679.97
2022-09-30T07:44:14.619Z,96688.69
2022-09-30T07:46:44.123Z,96685.00
2022-09-30T07:49:27.077Z,96692.31
2022-09-30T07:51:59.680Z,96695.50
2022-09-30T07:54:31.269Z,96696.25
2022-09-30T07:57:15.425Z,96700.09
2022-09-30T07:59:42.922Z,96704.63
2022-09-30T08:02:17.913Z,96712.00
2022-09-30T08:04:45.914Z,96712.19
2022-09-30T08:07:16.422Z,96713.16
2022-09-30T08:09:43.799Z,96712.56
2022-09-30T08:12:11.116Z,96712.19
2022-09-30T08:14:38.366Z,96721.59
2022-09-30T08:17:06.289Z,96716.69
2022-09-30T08:19:34.006Z,96718.84
2022-09-30T08:24:33.706Z,96731.47
2022-09-30T08:27:00.990Z,96735.13
2022-09-30T08:29:54.555Z,96730.91
2022-09-30T08:32:15.591Z,96737.56
2022-09-30T08:34:42.841Z,96736.91
2022-09-30T08:37:10.564Z,96742.06
2022-09-30T08:39:40.575Z,96740.31
2022-09-30T08:42:58.776Z,96743.25
2022-09-30T08:45:52.367Z,96750.72
2022-09-30T08:48:59.779Z,96750.44
2022-09-30T08:51:44.904Z,96750.16
2022-09-30T08:54:20.919Z,96746.59
2022-09-30T08:56:49.064Z,96750.16
2022-09-30T08:59:26.905Z,96754.47
2022-09-30T09:02:22.647Z,96749.16
2022-09-30T09:04:54.889Z,96750.44
2022-09-30T09:08:11.760Z,96755.25
2022-09-30T09:10:45.272Z,96759.09
2022-09-30T09:14:04.607Z,96761.47
2022-09-30T09:16:42.757Z,96758.13
2022-09-30T09:19:19.529Z,96761.75
2022-09-30T09:22:01.951Z,96763.44
2022-09-30T09:24:40.023Z,96767.75
2022-09-30T09:27:41.760Z,96765.41
2022-09-30T09:30:13.853Z,96774.75
2022-09-30T09:32:47.718Z,96766.00
2022-09-30T09:35:57.702Z,96774.03
2022-09-30T09:38:35.842Z,96778.94
2022-09-30T09:41:21.241Z,96781.59
2022-09-30T09:44:35.184Z,96779.13
2022-09-30T09:47:17.261Z,96782.50
2022-09-30T09:50:01.571Z,96789.16
2022-09-30T09:52:31.551Z,96794.56
2022-09-30T09:55:01.032Z,96785.72
2022-09-30T09:57:32.748Z,96792.91
2022-09-30T10:01:01.572Z,96795.34
2022-09-30T10:03:29.814Z,96797.69
2022-09-30T10:06:03.849Z,96791.00
2022-09-30T10:08:35.786Z,96794.66
2022-09-30T10:11:07.552Z,96797.47
2022-09-30T10:13:47.554Z,96802.78
2022-09-30T10:16:36.758Z,96803.94
2022-09-30T10:19:26.805Z,96806.53
2022-09-30T10:22:25.603Z,96803.19
2022-09-30T10:25:08.769Z,96809.09
2022-09-30T10:27:36.143Z,96807.50
2022-09-30T10:30:04.060Z,96811.66
2022-09-30T10:32:32.824Z,96812.03
2022-09-30T10:35:18.313Z,96818.41
2022-09-30T10:37:54.841Z,96819.41
2022-09-30T10:40:29.108Z,96815.97
2022-09-30T10:42:57.621Z,96830.88
2022-09-30T10:45:38.971Z,96829.41
2022-09-30T10:48:18.731Z,96825.91
2022-09-30T10:50:55.442Z,96826.78
2022-09-30T10:53:35.259Z,96832.88
2022-09-30T10:56:05.407Z,96834.44
2022-09-30T10:58:56.733Z,96837.38
2022-09-30T11:01:36.596Z,96844.75
2022-09-30T11:04:43.246Z,96839.53
2022-09-30T11:07:31.689Z,96844.75
2022-09-30T11:10:39.244Z,96853.97
2022-09-30T11:13:12.134Z,96850.75
2022-09-30T11:15:58.150Z,96844.16
2022-09-30T11:19:05.336Z,96852.78
2022-09-30T11:22:02.114Z,96860.06
2022-09-30T11:24:41.535Z,96864.28
2022-09-30T11:27:17.635Z,96862.50
2022-09-30T11:29:56.228Z,96863.31
2022-09-30T11:32:35.244Z,96860.97
2022-09-30T11:35:33.060Z,96865.84
2022-09-30T11:38:34.280Z,96867.13
2022-09-30T11:41:39.080Z,96870.78
2022-09-30T11:44:45.811Z,96877.53
2022-09-30T11:47:27.607Z,96879.03
2022-09-30T11:50:23.863Z,96884.41
2022-09-30T11:53:44.472Z,96883.25
2022-09-30T11:56:36.921Z,96888.25
2022-09-30T11:59:21.392Z,96885.09
2022-09-30T12:01:54.570Z,96877.03
2022-09-30T12:04:43.973Z,96886.19
2022-09-30T12:07:22.680Z,96895.41
2022-09-30T12:10:03.706Z,96899.16
2022-09-30T12:12:32.484Z,96906.41
2022-09-30T12:15:06.910Z,96902.63
2022-09-30T12:17:44.256Z,96916.47
2022-09-30T12:20:42.133Z,96920.63
2022-09-30T12:23:42.441Z,96916.25
2022-09-30T12:26:12.702Z,96918.19
2022-09-30T12:29:22.096Z,96920.69
2022-09-30T12:32:21.066Z,96921.81
2022-09-30T12:35:09.906Z,96924.75
2022-09-30T12:38:09.216Z,96939.28
2022-09-30T12:41:27.300Z,96937.22
2022-09-30T12:44:41.138Z,96943.41
2022-09-30T12:47:35.385Z,96943.38
2022-09-30T12:50:08.438Z,96952.59
2022-09-30T12:52:38.562Z,96948.66
2022-09-30T12:55:31.275Z,96939.16
2022-09-30T12:58:02.352Z,96936.41
2022-09-30T13:00:37.842Z,96939.16
2022-09-30T13:03:15.566Z,96934.81
2022-09-30T13:06:02.126Z,96935.63
2022-09-30T13:08:47.957Z,96942.97
2022-09-30T13:11:38.367Z,96946.13
2022-09-30T13:14:34.463Z,96944.94
2022-09-30T13:17:07.457Z,96937.47
2022-09-30T13:19:41.228Z,96948.38
2022-09-30T13:22:20.767Z,96948.28
2022-09-30T13:25:05.885Z,96953.50
2022-09-30T13:27:35.237Z,96948.97
2022-09-30T13:30:22.421Z,96949.84
2022-09-30T13:32:59.799Z,96959.03
2022-09-30T13:35:51.124Z,96971.00
2022-09-30T13:38:21.902Z,96966.84
2022-09-30T13:41:05.583Z,96973.44
2022-09-30T13:43:47.318Z,96965.59
2022-09-30T13:46:43.759Z,96970.03
2022-09-30T13:49:46.890Z,96969.34
2022-09-30T13:52:31.063Z,96967.34
2022-09-30T13:55:06.769Z,96960.16
2022-09-30T13:57:54.365Z,96964.22
2022-09-30T14:00:25.139Z,96963.72
2022-09-30T14:03:39.526Z,96959.78
2022-09-30T14:06:37.605Z,96962.84
2022-09-30T14:09:20.315Z,96956.47
2022-09-30T14:12:48.350Z,96955.09
2022-09-30T14:16:01.853Z,96950.94
2022-09-30T14:18:38.682Z,96965.38
2022-09-30T14:21:29.253Z,96959.59
2022-09-30T14:24:02.225Z,96974.72
2022-09-30T14:27:08.569Z,96972.84
2022-09-30T14:30:06.069Z,96981.19
2022-09-30T14:32:39.820Z,96984.25
2022-09-30T14:36:22.136Z,96984.91
2022-09-30T14:39:22.328Z,96989.06
2022-09-30T14:42:01.115Z,96989.22
2022-09-30T14:44:33.953Z,96990.59
2022-09-30T14:47:03.963Z,96991.75
2022-09-30T14:49:36.136Z,96995.22
2022-09-30T14:52:04.819Z,96994.94
2022-09-30T14:54:33.750Z,97006.31
2022-09-30T14:57:04.268Z,96997.34
2022-09-30T14:59:34.817Z,96994.66
2022-09-30T15:02:20.711Z,97002.03
2022-09-30T15:04:59.182Z,96997.13
2022-09-30T15:07:28.581Z,96996.31
2022-09-30T15:10:02.400Z,96995.59
2022-09-30T15:12:30.718Z,96991.38
2022-09-30T15:14:59.901Z,96991.75
2022-09-30T15:17:35.502Z,97000.41
2022-09-30T15:20:33.855Z,97008.50
2022-09-30T15:23:09.390Z,96998.78
2022-09-30T15:25:37.074Z,97006.84
2022-09-30T15:28:05.309Z,97008.28
2022-09-30T15:30:33.321Z,97015.66
2022-09-30T15:33:04.958Z,97011.72
2022-09-30T15:35:35.960Z,97010.16
2022-09-30T15:38:21.051Z,97006.22
2022-09-30T15:41:05.666Z,97014.44
2022-09-30T15:43:46.489Z,97025.03
2022-09-30T15:46:35.377Z,97020.09
2022-09-30T15:49:07.838Z,97031.03
2022-09-30T15:51:41.893Z,97032.91
2022-09-30T15:54:15.541Z,97032.34
2022-09-30T15:56:43.905Z,97039.56
2022-09-30T15:59:15.621Z,97042.09
2022-09-30T16:01:56.706Z,97044.41
2022-09-30T16:04:26.436Z,97043.63
2022-09-30T16:06:58.227Z,97049.75
2022-09-30T16:09:41.001Z,97054.31
2022-09-30T16:12:14.432Z,97051.47
2022-09-30T16:14:49.649Z,97049.34
2022-09-30T16:17:39.587Z,97046.00
2022-09-30T16:20:17.611Z,97055.47
2022-09-30T16:22:45.045Z,97042.00
2022-09-30T16:25:19.612Z,97050.78
2022-09-30T16:27:47.694Z,97052.72
2022-09-30T16:30:18.187Z,97049.53
2022-09-30T16:32:50.621Z,97056.19
2022-09-30T16:35:24.549Z,97056.66
2022-09-30T16:38:03.617Z,97058.22
2022-09-30T16:40:33.485Z,97061.16
2022-09-30T16:43:04.305Z,97062.22
2022-09-30T16:45:32.841Z,97061.25
2022-09-30T16:48:02.134Z,97054.34
2022-09-30T16:50:34.121Z,97055.84
2022-09-30T16:53:01.591Z,97056.31
2022-09-30T16:55:30.106Z,97065.31
2022-09-30T16:57:58.564Z,97069.56
2022-09-30T17:00:28.844Z,97076.75
2022-09-30T17:02:56.612Z,97080.00
2022-09-30T17:05:26.863Z,97085.25
2022-09-30T17:08:01.380Z,97088.53
2022-09-30T17:10:32.135Z,97086.44
2022-09-30T17:13:00.498Z,97091.94
2022-09-30T17:15:31.140Z,97104.91
2022-09-30T17:17:59.611Z,97102.03
2022-09-30T17:20:27.761Z,97105.00
2022-09-30T17:22:55.130Z,97097.06
2022-09-30T17:25:22.450Z,97102.63
2022-09-30T17:27:50.276Z,97098.84
2022-09-30T17:30:19.581Z,97102.03
2022-09-30T17:32:47.837Z,97108.34
2022-09-30T17:35:15.435Z,97107.00
2022-09-30T17:37:46.336Z,97094.03
2022-09-30T17:40:33.626Z,97105.06
2022-09-30T17:43:13.271Z,97107.31
2022-09-30T17:45:46.312Z,97111.59
2022-09-30T17:48:17.335Z,97118.72
2022-09-30T17:50:48.658Z,97126.41
2022-09-30T17:53:18.215Z,97121.09
2022-09-30T17:55:48.378Z,97122.63
2022-09-30T17:58:18.105Z,97125.31
2022-09-30T18:00:47.228Z,97123.47
2022-09-30T18:03:14.707Z,97130.34
2022-09-30T18:05:45.614Z,97131.38
2022-09-30T18:08:13.512Z,97130.13
2022-09-30T18:10:41.150Z,97138.38
2022-09-30T18:13:08.723Z,97136.19
2022-09-30T18:15:39.132Z,97138.09
2022-09-30T18:18:07.203Z,97144.97
2022-09-30T18:20:35.911Z,97142.63
2022-09-30T18:23:03.547Z,97141.03
2022-09-30T18:25:30.872Z,97145.81
2022-09-30T18:27:59.326Z,97141.56
2022-09-30T18:30:27.008Z,97145.09
2022-09-30T18:32:55.094Z,97150.66
2022-09-30T18:35:24.684Z,97147.22
2022-09-30T18:37:53.262Z,97156.94
2022-09-30T18:40:25.931Z,97157.16
2022-09-30T18:42:59.724Z,97156.66
2022-09-30T18:45:38.531Z,97158.47
2022-09-30T18:48:07.532Z,97160.66
2022-09-30T18:50:34.827Z,97167.75
2022-09-30T18:53:09.375Z,97161.13
2022-09-30T18:55:38.648Z,97161.13
2022-09-30T18:58:06.237Z,97164.00
2022-09-30T19:00:33.780Z,97168.28
2022-09-30T19:03:01.106Z,97177.56
2022-09-30T19:05:28.602Z,97181.50
2022-09-30T19:07:59.395Z,97177.53
2022-09-30T19:10:27.067Z,97178.88
2022-09-30T19:12:54.686Z,97173.81
2022-09-30T19:15:23.596Z,97169.31
2022-09-30T19:17:51.226Z,97174.34
2022-09-30T19:20:18.691Z,97174.91
2022-09-30T19:22:46.947Z,97174.16
2022-09-30T19:25:15.920Z,97173.31
2022-09-30T19:27:44.625Z,97182.84
2022-09-30T19:30:14.906Z,97180.75
2022-09-30T19:32:42.694Z,97175.47
2022-09-30T19:35:12.143Z,97177.34
2022-09-30T19:37:47.752Z,97178.88
2022-09-30T19:40:23.647Z,97175.69
2022-09-30T19:42:51.507Z,97171.97
2022-09-30T19:45:25.735Z,97167.97
2022-09-30T19:47:54.386Z,97169.28
2022-09-30T19:50:21.818Z,97166.13
2022-09-30T19:52:57.041Z,97167.72
2022-09-30T19:55:26.195Z,97172.22
2022-09-30T19:57:53.883Z,97171.44
2022-09-30T20:00:21.471Z,97169.84
2022-09-30T20:02:48.920Z,97163.50
2022-09-30T20:05:21.281Z,97166.94
2022-09-30T20:07:51.294Z,97165.06
2022-09-30T20:10:19.606Z,97162.69
2022-09-30T20:12:47.122Z,97165.88
2022-09-30T20:15:33.287Z,97157.66
2022-09-30T20:18:01.012Z,97158.69
2022-09-30T20:20:34.617Z,97160.84
2022-09-30T20:23:02.254Z,97164.00
2022-09-30T20:25:30.675Z,97157.69
2022-09-30T20:27:58.321Z,97157.69
2022-09-30T20:30:27.037Z,97148.19
2022-09-30T20:32:54.687Z,97153.44
2022-09-30T20:35:22.567Z,97148.97
2022-09-30T20:37:51.276Z,97156.56
2022-09-30T20:40:19.125Z,97141.81
2022-09-30T20:42:46.691Z,97145.56
2022-09-30T20:45:14.711Z,97142.13
2022-09-30T20:47:47.163Z,97142.31
2022-09-30T20:50:34.815Z,97142.88
2022-09-30T20:53:09.338Z,97148.38
2022-09-30T20:55:39.854Z,97140.22
2022-09-30T20:58:08.840Z,97140.22
2022-09-30T21:00:42.423Z,97145.50
2022-09-30T21:03:13.981Z,97143.16
2022-09-30T21:05:41.590Z,97139.94
2022-09-30T21:08:09.127Z,97145.47
2022-09-30T21:10:38.719Z,97142.00
2022-09-30T21:13:10.950Z,97143.66
2022-09-30T21:15:40.152Z,97145.81
2022-09-30T21:18:08.800Z,97142.91
2022-09-30T21:20:36.706Z,97146.31
2022-09-30T21:23:04.591Z,97153.72
2022-09-30T21:25:32.585Z,97161.59
2022-09-30T21:28:00.122Z,97165.28
2022-09-30T21:30:28.331Z,97159.53
2022-09-30T21:32:55.703Z,97158.75
2022-09-30T21:35:23.238Z,97155.28
2022-09-30T21:37:50.689Z,97155.56
2022-09-30T21:40:19.091Z,97160.31
2022-09-30T21:42:46.537Z,97155.63
2022-09-30T21:45:14.017Z,97157.22
2022-09-30T21:47:41.372Z,97155.59
2022-09-30T21:50:09.501Z,97157.97
2022-09-30T21:52:38.141Z,97162.72
2022-09-30T21:55:07.302Z,97158.25
2022-09-30T21:57:35.125Z,97162.41
2022-09-30T22:00:03.639Z,97158.78
2022-09-30T22:02:41.248Z,97154.47
2022-09-30T22:05:09.928Z,97158.44
2022-09-30T22:07:38.273Z,97159.78
2022-09-30T22:10:06.260Z,97152.69
2022-09-30T22:12:33.776Z,97158.75
2022-09-30T22:15:01.222Z,97162.22
2022-09-30T22:17:28.668Z,97163.25
2022-09-30T22:19:56.529Z,97164.56
2022-09-30T22:22:26.364Z,97164.88
2022-09-30T22:24:53.806Z,97165.41
2022-09-30T22:27:21.298Z,97157.25
2022-09-30T22:29:49.370Z,97154.06
2022-09-30T22:32:16.954Z,97150.03
2022-09-30T22:35:03.061Z,97147.13
2022-09-30T22:37:49.103Z,97158.19
2022-09-30T22:40:16.712Z,97161.47
2022-09-30T22:42:44.160Z,97163.81
2022-09-30T22:45:11.509Z,97156.19
2022-09-30T22:47:39.161Z,97153.28
2022-09-30T22:50:07.267Z,97160.88
2022-09-30T22:52:34.632Z,97180.16
2022-09-30T22:55:02.215Z,97179.63
2022-09-30T22:57:29.619Z,97169.81
2022-09-30T22:59:59.063Z,97170.34
2022-09-30T23:02:26.492Z,97170.34
2022-09-30T23:04:54.434Z,97164.56
2022-09-30T23:07:21.857Z,97157.97
2022-09-30T23:09:49.242Z,97155.59
2022-09-30T23:12:16.503Z,97161.97
2022-09-30T23:14:43.891Z,97159.31
2022-09-30T23:17:13.162Z,97150.63
2022-09-30T23:19:40.593Z,97151.97
2022-09-30T23:22:08.103Z,97155.19
2022-09-30T23:24:35.420Z,97152.34
2022-09-30T23:27:03.085Z,97149.00
2022-09-30T23:29:30.536Z,97141.09
2022-09-30T23:31:57.901Z,97137.66
2022-09-30T23:34:25.393Z,97132.38
2022-09-30T23:36:52.878Z,97149.06
2022-09-30T23:39:21.369Z,97140.88
2022-09-30T23:41:50.184Z,97141.69
2022-09-30T23:44:19.126Z,97140.09
2022-09-30T23:47:06.688Z,97139.03
2022-09-30T23:49:37.728Z,97131.66
2022-09-30T23:52:12.899Z,97137.47
2022-09-30T23:54:44.071Z,97133.28
2022-09-30T23:57:11.753Z,97123.75
2022-09-30T23:59:39.635Z,97121.94
